Time;durP1;ratioP1;P1;durP2;ratioP2;P2;SDS_P1;SDS_P2;PMS_P1;PMS_P2;Temp;Humidity;BMP_temperature;BMP_pressure;BME280_temperature;BME280_humidity;BME280_pressure;Samples;Min_cycle;Max_cycle;Signal;HPM_P1;HPM_P2
2021/09/24 00:01:50;;;;;;;16.93;5.48;;;;;;;11.94;100.00;98728.31;714283;1200;114820;-73
2021/09/24 00:16:52;;;;;;;12.03;2.70;;;;;;;12.12;100.00;98730.61;714567;1200;114419;-73
2021/09/24 00:31:54;;;;;;;19.83;4.80;;;;;;;12.31;100.00;98742.35;714382;1200;115433;-73
2021/09/24 00:46:57;;;;;;;9.00;2.53;;;;;;;12.33;100.00;98753.52;714042;1200;114376;-72
2021/09/24 01:02:00;;;;;;;13.93;2.73;;;;;;;12.23;100.00;98732.75;714326;1204;115029;-72
2021/09/24 01:17:03;;;;;;;10.93;3.47;;;;;;;12.06;100.00;98753.19;714122;1206;114822;-71
2021/09/24 01:32:07;;;;;;;10.00;2.37;;;;;;;12.06;100.00;98776.01;713984;1200;114307;-72
2021/09/24 01:47:09;;;;;;;14.60;2.33;;;;;;;12.04;100.00;98797.22;714266;1176;113771;-73
2021/09/24 02:02:12;;;;;;;10.77;2.57;;;;;;;11.96;100.00;98823.59;714039;1200;115200;-73
2021/09/24 02:17:15;;;;;;;13.40;2.68;;;;;;;11.77;100.00;98848.53;714048;1200;115511;-73
2021/09/24 02:32:17;;;;;;;9.10;2.48;;;;;;;11.62;100.00;98857.19;714118;1200;114333;-72
2021/09/24 02:47:19;;;;;;;6.97;2.00;;;;;;;11.53;100.00;98881.08;714075;1200;114030;-73
2021/09/24 03:02:21;;;;;;;8.90;2.07;;;;;;;11.40;100.00;98898.23;713900;1202;114040;-72
2021/09/24 03:17:24;;;;;;;10.85;2.20;;;;;;;11.46;100.00;98936.11;714062;1200;114186;-72
2021/09/24 03:32:27;;;;;;;9.80;3.70;;;;;;;11.51;100.00;98951.33;714012;1205;115134;-73
2021/09/24 03:47:29;;;;;;;49.70;24.48;;;;;;;11.44;100.00;98954.66;713979;1200;115089;-74
2021/09/24 04:02:31;;;;;;;15.03;3.87;;;;;;;11.34;100.00;98972.44;714434;1200;114452;-73
2021/09/24 04:17:33;;;;;;;13.80;2.63;;;;;;;11.34;100.00;98975.06;714386;1200;115476;-73
2021/09/24 04:32:36;;;;;;;11.85;2.53;;;;;;;11.33;100.00;98986.55;714588;1202;113360;-73
2021/09/24 04:47:39;;;;;;;11.35;2.40;;;;;;;11.32;100.00;98998.87;714597;1200;114374;-73
2021/09/24 05:02:41;;;;;;;8.13;2.20;;;;;;;11.52;100.00;99021.25;714390;1202;114333;-73
2021/09/24 05:17:44;;;;;;;9.85;3.00;;;;;;;11.73;100.00;99049.53;714833;1176;114601;-73
2021/09/24 05:32:46;;;;;;;14.05;3.40;;;;;;;11.94;100.00;99065.52;714449;1199;114858;-74
2021/09/24 05:47:48;;;;;;;15.80;2.50;;;;;;;12.27;100.00;99070.59;714880;1177;113782;-88
2021/09/24 06:02:51;;;;;;;10.40;6.03;;;;;;;12.36;100.00;99084.47;714789;1200;114348;-79
2021/09/24 06:17:54;;;;;;;13.17;4.13;;;;;;;12.78;100.00;99100.75;715222;1200;113835;-79
2021/09/24 06:32:57;;;;;;;9.13;2.77;;;;;;;13.13;100.00;99116.84;714146;1199;115090;-81
2021/09/24 06:47:59;;;;;;;13.73;2.95;;;;;;;13.60;100.00;99144.69;714398;1200;114361;-83
2021/09/24 07:03:02;;;;;;;26.25;11.10;;;;;;;13.72;100.00;99146.87;714756;1200;115369;-86
2021/09/24 07:18:05;;;;;;;10.88;3.25;;;;;;;14.34;100.00;99185.11;714556;1200;114911;-84
2021/09/24 07:33:07;;;;;;;10.88;2.95;;;;;;;14.59;100.00;99205.88;714242;1200;113972;-75
2021/09/24 07:48:09;;;;;;;16.98;6.50;;;;;;;15.12;100.00;99226.69;714098;1200;114740;-75
2021/09/24 08:03:12;;;;;;;18.30;5.23;;;;;;;15.06;100.00;99223.00;713991;1199;114862;-75
2021/09/24 08:18:16;;;;;;;13.00;2.70;;;;;;;15.94;100.00;99242.92;713903;1200;113918;-75
2021/09/24 08:33:19;;;;;;;6.40;1.70;;;;;;;15.71;96.11;99261.69;714237;1200;114169;-76
2021/09/24 08:48:22;;;;;;;9.03;2.33;;;;;;;15.41;95.70;99283.83;713761;1200;113450;-75
2021/09/24 09:03:43;;;;;;;11.78;3.13;;;;;;;15.88;96.77;99291.33;713890;1204;114405;-75
2021/09/24 09:18:50;;;;;;;16.65;7.28;;;;;;;16.25;94.80;99319.19;713985;1176;113952;-82
2021/09/24 09:33:56;;;;;;;19.85;6.55;;;;;;;15.78;96.68;99313.61;713914;1200;113998;-82
2021/09/24 09:49:11;;;;;;;8.53;3.57;;;;;;;16.64;92.82;99332.80;714212;1200;114129;-83
2021/09/24 10:04:14;;;;;;;5.70;2.37;;;;;;;16.75;88.69;99350.77;714981;1177;113494;-76
2021/09/24 10:19:17;;;;;;;17.50;6.88;;;;;;;16.71;87.74;99354.83;714295;1205;114500;-72
2021/09/24 10:34:30;;;;;;;11.50;2.27;;;;;;;16.79;89.10;99346.70;714653;1200;114408;-72
2021/09/24 10:49:32;;;;;;;10.27;2.70;;;;;;;17.94;82.27;99358.32;714003;1200;113597;-72
2021/09/24 11:04:52;;;;;;;7.63;2.25;;;;;;;17.96;79.14;99377.48;714487;1200;114717;-73
2021/09/24 11:19:55;;;;;;;11.63;4.93;;;;;;;18.05;77.78;99402.78;715058;1200;112867;-73
2021/09/24 11:34:59;;;;;;;8.65;3.75;;;;;;;18.71;71.32;99414.28;714725;1202;115040;-72
2021/09/24 11:50:06;;;;;;;6.18;1.90;;;;;;;19.05;67.80;99411.53;714261;1199;114161;-76
2021/09/24 12:05:09;;;;;;;8.25;1.70;;;;;;;18.94;62.42;99419.14;714917;1204;114883;-76
2021/09/24 12:20:12;;;;;;;7.28;2.40;;;;;;;18.45;62.54;99431.94;714712;1200;113585;-75
2021/09/24 12:35:15;;;;;;;6.78;2.08;;;;;;;18.50;63.02;99467.67;715583;1180;113413;-77
2021/09/24 12:50:18;;;;;;;10.93;5.10;;;;;;;19.75;61.50;99480.66;714943;1200;115585;-79
2021/09/24 13:05:22;;;;;;;10.13;3.60;;;;;;;18.90;60.19;99518.11;714689;1200;114893;-78
2021/09/24 13:20:26;;;;;;;7.40;2.00;;;;;;;18.42;62.51;99519.98;714260;1200;114332;-77
2021/09/24 13:35:29;;;;;;;8.90;2.45;;;;;;;23.19;55.16;99529.42;714249;1199;114490;-77
2021/09/24 13:50:32;;;;;;;30.98;12.30;;;;;;;24.30;50.67;99546.95;714101;1200;115489;-74
2021/09/24 14:05:35;;;;;;;26.70;7.73;;;;;;;23.00;50.07;99566.97;714124;1202;114341;-73
2021/09/24 14:20:38;;;;;;;14.43;4.70;;;;;;;18.45;59.53;99580.64;714079;1202;113799;-73
2021/09/24 14:35:41;;;;;;;16.68;5.05;;;;;;;23.36;51.95;99636.50;714176;1199;113745;-74
2021/09/24 14:50:44;;;;;;;6.60;3.30;;;;;;;19.97;56.90;99618.77;714197;1204;114429;-73
2021/09/24 15:05:46;;;;;;;11.95;3.18;;;;;;;19.32;59.10;99632.91;714481;1204;114848;-73
2021/09/24 15:20:49;;;;;;;11.88;4.55;;;;;;;18.94;60.62;99637.05;714263;1181;113561;-80
2021/09/24 15:35:52;;;;;;;10.10;4.27;;;;;;;19.01;60.94;99652.98;714454;1200;113509;-79
2021/09/24 15:50:55;;;;;;;25.30;15.08;;;;;;;17.64;62.32;99663.67;714326;1200;115255;-75
2021/09/24 16:05:58;;;;;;;49.93;19.43;;;;;;;16.43;65.88;99659.30;714061;1199;113844;-76
2021/09/24 16:21:00;;;;;;;21.27;9.17;;;;;;;15.91;69.35;99675.22;714075;1199;115523;-75
2021/09/24 16:36:03;;;;;;;16.70;9.13;;;;;;;15.23;72.20;99703.53;714031;1179;113524;-72
2021/09/24 16:51:06;;;;;;;12.75;6.95;;;;;;;14.83;73.76;99730.11;714151;1202;115187;-72
2021/09/24 17:06:09;;;;;;;21.98;13.93;;;;;;;14.45;76.49;99764.30;714396;1200;114338;-76
2021/09/24 17:21:13;;;;;;;53.50;27.93;;;;;;;14.21;77.31;99759.98;714020;1178;113696;-76
2021/09/24 17:36:18;;;;;;;15.83;6.88;;;;;;;13.91;79.96;99772.94;714165;1174;113936;-75
2021/09/24 17:51:20;;;;;;;53.70;29.20;;;;;;;13.62;81.88;99782.25;714336;1205;113722;-75
2021/09/24 18:06:23;;;;;;;25.33;13.07;;;;;;;13.30;84.74;99803.16;714078;1177;113847;-74
2021/09/24 18:21:25;;;;;;;44.18;20.95;;;;;;;13.09;88.04;99811.53;714062;1174;114141;-73
2021/09/24 18:36:28;;;;;;;34.73;17.40;;;;;;;12.94;88.91;99824.49;714324;1200;114046;-76
2021/09/24 18:51:33;;;;;;;23.18;11.40;;;;;;;12.69;91.06;99820.17;714288;1205;114089;-75
2021/09/24 19:06:36;;;;;;;26.87;10.07;;;;;;;12.61;92.69;99828.86;714171;1178;114109;-74
2021/09/24 19:21:39;;;;;;;30.03;11.10;;;;;;;12.68;95.68;99845.65;714044;1175;113798;-72
2021/09/24 19:36:42;;;;;;;19.33;6.33;;;;;;;13.01;96.31;99855.45;714503;1195;113798;-73
2021/09/24 19:51:44;;;;;;;13.28;4.98;;;;;;;13.26;96.06;99851.88;714603;1202;115909;-74
2021/09/24 20:06:49;;;;;;;14.93;4.88;;;;;;;13.39;94.91;99838.23;714657;1199;115026;-74
2021/09/24 20:21:52;;;;;;;14.93;4.23;;;;;;;13.30;95.87;99832.13;714832;1200;114078;-73
2021/09/24 20:36:55;;;;;;;18.30;4.77;;;;;;;13.31;96.51;99840.84;714586;1200;115549;-73
2021/09/24 20:51:58;;;;;;;20.43;5.65;;;;;;;13.02;95.97;99821.06;714126;1200;114026;-72
2021/09/24 21:07:00;;;;;;;14.38;4.70;;;;;;;12.77;98.16;99834.16;714266;1205;115225;-72
2021/09/24 21:22:02;;;;;;;18.43;5.55;;;;;;;12.69;100.00;99831.52;714158;1205;113812;-73
2021/09/24 21:37:05;;;;;;;11.28;4.53;;;;;;;12.83;100.00;99822.19;714396;1200;113930;-72
2021/09/24 21:52:08;;;;;;;20.70;5.33;;;;;;;12.95;100.00;99802.45;716583;1177;114424;-72
2021/09/24 22:07:10;;;;;;;17.10;5.23;;;;;;;13.03;100.00;99798.20;714153;1199;114814;-72
2021/09/24 22:22:13;;;;;;;15.43;4.37;;;;;;;13.09;100.00;99801.00;714088;1206;115313;-71
2021/09/24 22:37:16;;;;;;;12.85;4.93;;;;;;;13.31;100.00;99809.23;714256;1200;114958;-72
2021/09/24 22:52:18;;;;;;;9.53;3.73;;;;;;;13.48;100.00;99802.99;713886;1203;115540;-72
2021/09/24 23:07:20;;;;;;;12.25;4.00;;;;;;;13.74;100.00;99803.81;713809;1199;114662;-72
2021/09/24 23:22:22;;;;;;;9.80;3.73;;;;;;;13.93;100.00;99786.78;713759;1206;113998;-72
2021/09/24 23:37:26;;;;;;;11.43;4.40;;;;;;;14.11;100.00;99787.38;713922;1176;114220;-72
2021/09/24 23:52:28;;;;;;;8.30;3.90;;;;;;;14.33;100.00;99777.06;713871;1203;114352;-73
